Time;durP1;ratioP1;P1;durP2;ratioP2;P2;SDS_P1;SDS_P2;PMS_P1;PMS_P2;Temp;Humidity;BMP_temperature;BMP_pressure;BME280_temperature;BME280_humidity;BME280_pressure;Samples;Min_cycle;Max_cycle;Signal;HPM_P1;HPM_P2
2021/01/26 00:01:09;;;;;;;;;;;12.10;52.80;;;;;;2089700;28;739;-62
2021/01/26 00:02:29;;;;;;;;;;;12.10;52.80;;;;;;2089850;28;719;-63
2021/01/26 00:03:48;;;;;;;;;;;12.20;52.90;;;;;;2089336;28;729;-61
2021/01/26 00:05:07;;;;;;;;;;;12.10;52.80;;;;;;2083439;28;1629;-62
2021/01/26 00:06:27;;;;;;;;;;;12.20;53.40;;;;;;2089601;28;1394;-63
2021/01/26 00:07:46;;;;;;;;;;;12.20;52.90;;;;;;2094313;28;1070;-62
2021/01/26 00:09:05;;;;;;;;;;;12.10;52.90;;;;;;2089167;28;690;-61
2021/01/26 00:10:24;;;;;;;;;;;12.10;52.90;;;;;;2088553;28;2608;-63
2021/01/26 00:11:44;;;;;;;;;;;12.10;52.90;;;;;;2088422;28;1044;-60
2021/01/26 00:13:04;;;;;;;;;;;12.10;52.90;;;;;;2078715;28;1573;-62
2021/01/26 00:14:22;;;;;;;;;;;12.10;52.90;;;;;;2081527;28;1139;-62
2021/01/26 00:15:42;;;;;;;;;;;12.10;52.90;;;;;;2085552;28;1279;-61
2021/01/26 00:17:01;;;;;;;;;;;12.10;52.90;;;;;;2089266;28;741;-63
2021/01/26 00:18:20;;;;;;;;;;;12.10;52.90;;;;;;2080950;28;720;-61
2021/01/26 00:19:39;;;;;;;;;;;12.10;52.90;;;;;;2076119;28;1910;-62
2021/01/26 00:20:59;;;;;;;;;;;12.10;53.00;;;;;;2085981;28;1015;-62
2021/01/26 00:22:18;;;;;;;;;;;12.10;53.60;;;;;;2088103;28;1072;-62
2021/01/26 00:23:37;;;;;;;;;;;12.10;53.60;;;;;;2094084;28;761;-63
2021/01/26 00:24:56;;;;;;;;;;;12.10;53.00;;;;;;2097121;28;715;-64
2021/01/26 00:26:17;;;;;;;;;;;12.10;53.00;;;;;;2088960;28;1458;-63
2021/01/26 00:27:36;;;;;;;;;;;12.10;53.10;;;;;;2091441;28;744;-64
2021/01/26 00:28:56;;;;;;;;;;;12.10;53.10;;;;;;2086186;28;695;-64
2021/01/26 00:30:19;;;;;;;;;;;12.10;53.10;;;;;;2085856;28;756;-62
2021/01/26 00:31:38;;;;;;;;;;;12.00;53.10;;;;;;2092233;28;712;-63
2021/01/26 00:33:00;;;;;;;;;;;12.10;53.10;;;;;;2094418;28;661;-62
2021/01/26 00:34:19;;;;;;;;;;;12.00;53.60;;;;;;2088881;28;773;-60
2021/01/26 00:35:38;;;;;;;;;;;12.00;53.10;;;;;;2090421;28;1481;-60
2021/01/26 00:36:58;;;;;;;;;;;12.00;53.10;;;;;;2090064;28;1025;-63
2021/01/26 00:38:17;;;;;;;;;;;12.10;53.20;;;;;;2094108;28;756;-61
2021/01/26 00:39:36;;;;;;;;;;;12.10;53.20;;;;;;2094065;28;1902;-61
2021/01/26 00:40:55;;;;;;;;;;;12.10;53.20;;;;;;2097275;28;756;-62
2021/01/26 00:42:15;;;;;;;;;;;12.00;53.10;;;;;;2097401;28;697;-63
2021/01/26 00:43:34;;;;;;;;;;;12.00;53.20;;;;;;2094272;28;728;-61
2021/01/26 00:44:53;;;;;;;;;;;12.00;53.20;;;;;;2085056;28;732;-64
2021/01/26 00:46:13;;;;;;;;;;;12.00;53.20;;;;;;2086039;28;1292;-62
2021/01/26 00:47:32;;;;;;;;;;;12.00;53.20;;;;;;2094165;28;731;-62
2021/01/26 00:48:51;;;;;;;;;;;12.00;53.20;;;;;;2092076;28;1023;-62
2021/01/26 00:50:11;;;;;;;;;;;12.00;53.80;;;;;;2095783;28;1000;-63
2021/01/26 00:51:30;;;;;;;;;;;12.00;53.80;;;;;;2082313;28;897;-61
2021/01/26 00:52:50;;;;;;;;;;;12.00;53.20;;;;;;2097194;28;694;-60
2021/01/26 00:54:18;;;;;;;;;;;12.00;53.20;;;;;;2087189;28;722;-63
2021/01/26 00:55:38;;;;;;;;;;;12.00;53.30;;;;;;2088315;28;1338;-60
2021/01/26 00:56:57;;;;;;;;;;;12.00;53.30;;;;;;2094474;28;686;-62
2021/01/26 00:58:17;;;;;;;;;;;12.00;53.80;;;;;;2090605;28;739;-62
2021/01/26 00:59:39;;;;;;;;;;;12.00;53.30;;;;;;2092764;28;1971;-62
2021/01/26 01:00:59;;;;;;;;;;;12.00;53.40;;;;;;2090894;28;725;-62
2021/01/26 01:02:22;;;;;;;;;;;12.00;53.40;;;;;;2089974;28;734;-63
2021/01/26 01:03:42;;;;;;;;;;;12.00;53.40;;;;;;2096386;28;682;-63
2021/01/26 01:05:01;;;;;;;;;;;12.00;53.90;;;;;;2098252;28;733;-61
2021/01/26 01:06:20;;;;;;;;;;;12.00;53.90;;;;;;2098911;28;1427;-60
2021/01/26 01:07:40;;;;;;;;;;;12.00;53.40;;;;;;2095722;28;695;-61
2021/01/26 01:08:59;;;;;;;;;;;12.00;53.40;;;;;;2095750;28;641;-60
2021/01/26 01:10:19;;;;;;;;;;;11.90;53.30;;;;;;2095501;28;677;-61
2021/01/26 01:11:38;;;;;;;;;;;12.00;53.40;;;;;;2103953;28;932;-60
2021/01/26 01:12:57;;;;;;;;;;;11.90;53.30;;;;;;2093918;28;628;-61
2021/01/26 01:14:17;;;;;;;;;;;11.90;53.40;;;;;;2095749;28;707;-60
2021/01/26 01:15:36;;;;;;;;;;;11.90;53.40;;;;;;2098392;28;1289;-60
2021/01/26 01:16:55;;;;;;;;;;;11.90;53.40;;;;;;2098804;28;724;-60
2021/01/26 01:18:14;;;;;;;;;;;11.90;53.40;;;;;;2099156;28;791;-60
2021/01/26 01:19:33;;;;;;;;;;;11.90;53.50;;;;;;2092125;28;1969;-60
2021/01/26 01:20:52;;;;;;;;;;;12.00;53.50;;;;;;2091509;28;1011;-60
2021/01/26 01:22:12;;;;;;;;;;;11.90;53.50;;;;;;2097498;28;1203;-60
2021/01/26 01:23:31;;;;;;;;;;;11.90;54.00;;;;;;2090480;28;729;-60
2021/01/26 01:24:50;;;;;;;;;;;11.90;53.50;;;;;;2094687;28;737;-59
2021/01/26 01:26:10;;;;;;;;;;;11.90;53.50;;;;;;2095579;28;1445;-61
2021/01/26 01:27:29;;;;;;;;;;;11.90;53.60;;;;;;2090437;28;747;-60
2021/01/26 01:28:48;;;;;;;;;;;11.90;53.50;;;;;;2096004;28;741;-60
2021/01/26 01:30:13;;;;;;;;;;;11.90;53.60;;;;;;2098822;28;728;-61
2021/01/26 01:31:32;;;;;;;;;;;11.90;53.60;;;;;;2096212;28;946;-61
2021/01/26 01:32:51;;;;;;;;;;;11.90;53.60;;;;;;2095151;28;744;-61
2021/01/26 01:34:10;;;;;;;;;;;11.90;54.10;;;;;;2098822;28;613;-61
2021/01/26 01:35:29;;;;;;;;;;;11.90;54.10;;;;;;2089845;28;737;-61
2021/01/26 01:36:48;;;;;;;;;;;11.90;54.10;;;;;;2095414;28;701;-62
2021/01/26 01:38:08;;;;;;;;;;;11.90;53.60;;;;;;2099168;28;719;-61
2021/01/26 01:39:27;;;;;;;;;;;11.90;53.70;;;;;;2098591;28;783;-61
2021/01/26 01:40:46;;;;;;;;;;;11.90;53.70;;;;;;2095396;28;712;-60
2021/01/26 01:42:06;;;;;;;;;;;11.90;53.60;;;;;;2099034;28;765;-61
2021/01/26 01:43:26;;;;;;;;;;;11.90;53.70;;;;;;2098591;28;700;-62
2021/01/26 01:44:45;;;;;;;;;;;11.90;53.60;;;;;;2098162;28;694;-60
2021/01/26 01:46:06;;;;;;;;;;;11.90;53.70;;;;;;2099282;28;1479;-60
2021/01/26 01:47:29;;;;;;;;;;;11.90;53.70;;;;;;2090262;28;760;-60
2021/01/26 01:48:48;;;;;;;;;;;11.90;53.70;;;;;;2086394;28;658;-61
2021/01/26 01:50:10;;;;;;;;;;;11.80;53.70;;;;;;2087028;28;1026;-61
2021/01/26 01:51:29;;;;;;;;;;;11.90;53.80;;;;;;2084837;28;967;-62
2021/01/26 01:52:49;;;;;;;;;;;11.90;53.80;;;;;;2095526;28;733;-62
2021/01/26 01:54:12;;;;;;;;;;;11.80;53.70;;;;;;2090226;28;720;-60
2021/01/26 01:55:32;;;;;;;;;;;11.80;53.70;;;;;;2100598;28;739;-60
2021/01/26 01:56:57;;;;;;;;;;;11.80;53.70;;;;;;2107173;28;648;-61
2021/01/26 01:58:18;;;;;;;;;;;11.80;53.80;;;;;;2098629;28;701;-60
2021/01/26 01:59:41;;;;;;;;;;;11.80;53.70;;;;;;2087191;28;1902;-61
2021/01/26 02:01:03;;;;;;;;;;;11.80;53.80;;;;;;2093083;28;748;-61
2021/01/26 02:02:23;;;;;;;;;;;11.80;53.80;;;;;;2095747;28;627;-60
2021/01/26 02:03:43;;;;;;;;;;;11.90;53.90;;;;;;2109422;28;1407;-60
2021/01/26 02:05:03;;;;;;;;;;;11.90;53.90;;;;;;2076364;28;706;-60
2021/01/26 02:06:22;;;;;;;;;;;11.90;53.80;;;;;;2079036;28;1352;-60
2021/01/26 02:07:41;;;;;;;;;;;12.00;53.80;;;;;;2081639;28;717;-61
2021/01/26 02:09:03;;;;;;;;;;;12.00;53.70;;;;;;2078381;28;722;-61
2021/01/26 02:10:22;;;;;;;;;;;12.10;53.50;;;;;;2082427;28;784;-61
2021/01/26 02:11:41;;;;;;;;;;;12.10;53.90;;;;;;2081919;28;932;-61
2021/01/26 02:13:00;;;;;;;;;;;12.20;53.30;;;;;;2081784;28;760;-62
2021/01/26 02:14:20;;;;;;;;;;;12.30;53.20;;;;;;2095166;28;782;-61
2021/01/26 02:15:39;;;;;;;;;;;12.30;53.10;;;;;;2084356;28;1375;-61
2021/01/26 02:17:00;;;;;;;;;;;12.40;53.00;;;;;;2082286;28;710;-61
2021/01/26 02:18:25;;;;;;;;;;;12.40;52.80;;;;;;2081910;28;724;-61
2021/01/26 02:20:02;;;;;;;;;;;12.50;52.70;;;;;;2078365;28;1906;-61
2021/01/26 02:21:31;;;;;;;;;;;12.50;53.10;;;;;;2090321;28;1095;-61
2021/01/26 02:22:56;;;;;;;;;;;12.60;52.40;;;;;;2082501;28;763;-62
2021/01/26 02:24:40;;;;;;;;;;;12.70;52.30;;;;;;2082053;28;734;-62
2021/01/26 02:26:14;;;;;;;;;;;12.70;52.10;;;;;;2073450;28;1439;-60
2021/01/26 02:27:48;;;;;;;;;;;12.80;52.50;;;;;;2088818;28;742;-59
2021/01/26 02:29:18;;;;;;;;;;;12.90;52.50;;;;;;2083059;28;830;-62
2021/01/26 02:30:56;;;;;;;;;;;13.00;52.30;;;;;;2096324;28;682;-61
2021/01/26 02:32:30;;;;;;;;;;;13.00;51.60;;;;;;2082479;28;625;-60
2021/01/26 02:34:07;;;;;;;;;;;13.10;52.10;;;;;;2081823;28;702;-62
2021/01/26 02:35:38;;;;;;;;;;;13.20;52.00;;;;;;2088395;28;733;-61
2021/01/26 02:37:06;;;;;;;;;;;13.20;51.30;;;;;;2081398;28;772;-61
2021/01/26 02:38:44;;;;;;;;;;;13.30;51.70;;;;;;2082450;28;621;-61
2021/01/26 02:40:21;;;;;;;;;;;13.40;51.10;;;;;;2089849;28;1972;-60
2021/01/26 02:41:42;;;;;;;;;;;13.50;51.50;;;;;;2088939;28;745;-60
2021/01/26 02:43:09;;;;;;;;;;;13.50;50.90;;;;;;2086783;28;744;-61
2021/01/26 02:44:35;;;;;;;;;;;13.60;50.80;;;;;;2082090;28;792;-60
2021/01/26 02:46:06;;;;;;;;;;;13.70;50.70;;;;;;2081867;28;1294;-60
2021/01/26 02:47:38;;;;;;;;;;;13.70;50.50;;;;;;2089868;28;1289;-61
2021/01/26 02:49:00;;;;;;;;;;;13.80;50.40;;;;;;2103478;28;1405;-61
2021/01/26 02:50:28;;;;;;;;;;;13.90;50.30;;;;;;2109380;28;1013;-61
2021/01/26 02:52:06;;;;;;;;;;;13.90;50.20;;;;;;2104309;28;1008;-62
2021/01/26 02:53:28;;;;;;;;;;;14.00;50.70;;;;;;2090182;28;733;-62
2021/01/26 02:54:53;;;;;;;;;;;14.10;50.00;;;;;;2094884;28;693;-62
2021/01/26 02:56:30;;;;;;;;;;;14.20;49.90;;;;;;2089558;28;1349;-62
2021/01/26 02:57:51;;;;;;;;;;;14.20;50.30;;;;;;2097573;28;714;-62
2021/01/26 02:59:24;;;;;;;;;;;14.30;49.70;;;;;;2097989;28;713;-60
2021/01/26 03:00:43;;;;;;;;;;;14.30;49.60;;;;;;2098011;28;734;-60
2021/01/26 03:02:10;;;;;;;;;;;14.40;49.50;;;;;;2097966;28;721;-62
2021/01/26 03:03:37;;;;;;;;;;;14.40;49.40;;;;;;2097871;28;773;-62
2021/01/26 03:05:02;;;;;;;;;;;14.40;49.90;;;;;;2088856;28;1001;-62
2021/01/26 03:06:26;;;;;;;;;;;14.40;49.40;;;;;;2095945;28;1899;-61
2021/01/26 03:07:47;;;;;;;;;;;14.40;50.00;;;;;;2089684;28;714;-62
2021/01/26 03:09:11;;;;;;;;;;;14.40;49.50;;;;;;2109039;28;768;-62
2021/01/26 03:10:37;;;;;;;;;;;14.40;49.60;;;;;;2100388;28;798;-62
2021/01/26 03:12:02;;;;;;;;;;;14.40;49.60;;;;;;2097844;28;935;-62
2021/01/26 03:13:22;;;;;;;;;;;14.30;49.70;;;;;;2095662;28;738;-61
2021/01/26 03:14:48;;;;;;;;;;;14.30;49.80;;;;;;2097703;28;732;-62
2021/01/26 03:16:08;;;;;;;;;;;14.30;50.40;;;;;;2089558;28;1483;-62
2021/01/26 03:17:32;;;;;;;;;;;14.20;49.90;;;;;;2091545;28;702;-62
2021/01/26 03:18:53;;;;;;;;;;;14.20;50.00;;;;;;2093332;28;731;-61
2021/01/26 03:20:16;;;;;;;;;;;14.20;50.70;;;;;;2092929;28;1902;-61
2021/01/26 03:21:36;;;;;;;;;;;14.10;50.20;;;;;;2081592;28;909;-62
2021/01/26 03:22:55;;;;;;;;;;;14.10;50.30;;;;;;2097528;28;732;-61
2021/01/26 03:24:24;;;;;;;;;;;14.10;50.40;;;;;;2094635;28;740;-61
2021/01/26 03:25:45;;;;;;;;;;;14.10;50.50;;;;;;2089580;28;1318;-60
2021/01/26 03:27:05;;;;;;;;;;;14.00;50.50;;;;;;2085054;28;838;-62
2021/01/26 03:28:26;;;;;;;;;;;14.00;50.70;;;;;;2081434;28;1035;-61
2021/01/26 03:29:46;;;;;;;;;;;13.90;50.70;;;;;;2099547;28;1277;-61
2021/01/26 03:31:05;;;;;;;;;;;13.90;50.80;;;;;;2088937;28;1194;-62
2021/01/26 03:32:26;;;;;;;;;;;13.90;51.40;;;;;;2079119;28;1101;-61
2021/01/26 03:33:46;;;;;;;;;;;13.90;51.60;;;;;;2083775;28;1401;-60
2021/01/26 03:35:06;;;;;;;;;;;13.80;51.00;;;;;;2084471;28;1244;-61
2021/01/26 03:36:25;;;;;;;;;;;13.80;51.10;;;;;;2069382;28;1387;-60
2021/01/26 03:37:47;;;;;;;;;;;13.80;51.20;;;;;;2080897;28;1202;-63
2021/01/26 03:39:06;;;;;;;;;;;13.80;51.30;;;;;;2085185;28;1137;-62
2021/01/26 03:40:25;;;;;;;;;;;13.70;51.30;;;;;;2085101;28;1977;-61
2021/01/26 03:41:44;;;;;;;;;;;13.70;51.40;;;;;;2084707;28;1152;-61
2021/01/26 03:43:03;;;;;;;;;;;13.70;51.50;;;;;;2082695;28;1175;-61
2021/01/26 03:44:23;;;;;;;;;;;13.70;52.10;;;;;;2087469;28;1207;-61
2021/01/26 03:45:42;;;;;;;;;;;13.60;51.50;;;;;;2091984;28;1558;-60
2021/01/26 03:47:07;;;;;;;;;;;13.60;52.20;;;;;;2091629;28;1071;-60
2021/01/26 03:48:45;;;;;;;;;;;13.60;51.70;;;;;;2087722;28;1181;-59
2021/01/26 03:50:07;;;;;;;;;;;13.60;51.80;;;;;;2085616;28;1197;-60
2021/01/26 03:51:45;;;;;;;;;;;13.50;51.80;;;;;;2081194;28;1173;-63
2021/01/26 03:53:14;;;;;;;;;;;13.50;51.80;;;;;;2089065;28;1439;-62
2021/01/26 03:54:36;;;;;;;;;;;13.50;51.80;;;;;;2083907;28;1131;-60
2021/01/26 03:56:10;;;;;;;;;;;13.50;52.00;;;;;;2084230;28;1381;-61
2021/01/26 03:57:48;;;;;;;;;;;13.50;52.10;;;;;;2085342;28;1257;-62
2021/01/26 03:59:28;;;;;;;;;;;13.50;52.20;;;;;;2082724;28;1072;-61
2021/01/26 04:00:47;;;;;;;;;;;13.40;52.10;;;;;;2083373;28;1099;-61
2021/01/26 04:02:10;;;;;;;;;;;13.40;52.80;;;;;;2075718;28;1262;-61
2021/01/26 04:03:48;;;;;;;;;;;13.40;52.30;;;;;;2085675;28;1224;-61
2021/01/26 04:05:11;;;;;;;;;;;13.40;52.40;;;;;;2084409;28;1330;-61
2021/01/26 04:06:35;;;;;;;;;;;13.30;52.40;;;;;;2091131;28;1452;-61
2021/01/26 04:08:06;;;;;;;;;;;13.30;52.90;;;;;;2097049;28;1200;-61
2021/01/26 04:09:26;;;;;;;;;;;13.30;52.50;;;;;;2097897;28;1184;-61
2021/01/26 04:10:49;;;;;;;;;;;13.30;52.50;;;;;;2083974;28;1221;-61
2021/01/26 04:12:10;;;;;;;;;;;13.30;52.60;;;;;;2075680;28;1262;-61
2021/01/26 04:13:31;;;;;;;;;;;13.30;52.70;;;;;;2071230;28;1236;-62
2021/01/26 04:14:53;;;;;;;;;;;13.20;52.60;;;;;;2071795;28;1250;-61
2021/01/26 04:16:12;;;;;;;;;;;13.20;53.20;;;;;;2078663;28;2106;-60
2021/01/26 04:17:33;;;;;;;;;;;13.20;52.80;;;;;;2070456;28;1242;-62
2021/01/26 04:18:51;;;;;;;;;;;13.20;52.80;;;;;;2080161;28;1181;-61
2021/01/26 04:20:11;;;;;;;;;;;13.20;52.90;;;;;;2078317;28;1913;-60
2021/01/26 04:21:32;;;;;;;;;;;13.20;52.90;;;;;;2094097;28;1205;-61
2021/01/26 04:22:52;;;;;;;;;;;13.20;52.90;;;;;;2103151;28;1200;-60
2021/01/26 04:24:11;;;;;;;;;;;13.20;53.00;;;;;;2098783;28;1135;-61
2021/01/26 04:25:30;;;;;;;;;;;13.10;53.00;;;;;;2089513;28;1217;-61
2021/01/26 04:26:49;;;;;;;;;;;13.10;53.50;;;;;;2083421;28;1191;-60
2021/01/26 04:28:13;;;;;;;;;;;13.10;53.60;;;;;;2083379;28;1610;-61
2021/01/26 04:29:33;;;;;;;;;;;13.10;53.10;;;;;;2080976;28;1227;-61
2021/01/26 04:30:52;;;;;;;;;;;13.00;53.10;;;;;;2095448;28;1157;-61
2021/01/26 04:32:11;;;;;;;;;;;13.00;53.20;;;;;;2089468;28;1119;-61
2021/01/26 04:33:30;;;;;;;;;;;13.00;53.10;;;;;;2084906;28;1188;-60
2021/01/26 04:34:50;;;;;;;;;;;13.00;53.20;;;;;;2084991;28;1273;-60
2021/01/26 04:36:09;;;;;;;;;;;13.00;53.30;;;;;;2087841;28;1419;-60
2021/01/26 04:37:29;;;;;;;;;;;13.00;53.30;;;;;;2077992;28;1319;-61
2021/01/26 04:38:48;;;;;;;;;;;13.00;53.40;;;;;;2090787;28;1132;-60
2021/01/26 04:40:07;;;;;;;;;;;12.90;53.30;;;;;;2094905;28;1934;-60
2021/01/26 04:41:27;;;;;;;;;;;12.90;53.40;;;;;;2097136;28;750;-60
2021/01/26 04:42:46;;;;;;;;;;;12.90;53.40;;;;;;2097262;28;797;-61
2021/01/26 04:44:15;;;;;;;;;;;12.90;53.40;;;;;;2097138;28;745;-60
2021/01/26 04:45:40;;;;;;;;;;;12.90;53.50;;;;;;2096301;28;968;-61
2021/01/26 04:47:03;;;;;;;;;;;12.90;54.10;;;;;;2097197;28;700;-61
2021/01/26 04:48:26;;;;;;;;;;;12.90;53.60;;;;;;2088618;28;757;-61
2021/01/26 04:50:04;;;;;;;;;;;12.90;53.70;;;;;;2083593;28;1153;-61
2021/01/26 04:51:29;;;;;;;;;;;12.80;54.10;;;;;;2089269;28;1043;-60
2021/01/26 04:53:07;;;;;;;;;;;12.90;53.70;;;;;;2080958;28;722;-60
2021/01/26 04:54:32;;;;;;;;;;;12.80;53.60;;;;;;2080513;28;796;-61
2021/01/26 04:56:09;;;;;;;;;;;12.80;53.70;;;;;;2080699;28;1348;-60
2021/01/26 04:57:33;;;;;;;;;;;12.80;53.70;;;;;;2080936;28;755;-60
2021/01/26 04:58:58;;;;;;;;;;;12.80;53.70;;;;;;2072467;28;754;-59
2021/01/26 05:00:23;;;;;;;;;;;12.80;54.30;;;;;;2075379;28;1898;-60
2021/01/26 05:01:51;;;;;;;;;;;12.80;53.80;;;;;;2080882;28;909;-60
2021/01/26 05:03:31;;;;;;;;;;;12.80;53.90;;;;;;2081426;28;884;-60
2021/01/26 05:04:54;;;;;;;;;;;12.70;53.80;;;;;;2079716;28;1224;-62
2021/01/26 05:06:14;;;;;;;;;;;12.70;53.90;;;;;;2072048;28;1450;-62
2021/01/26 05:07:40;;;;;;;;;;;12.70;53.90;;;;;;2074093;28;770;-61
2021/01/26 05:09:00;;;;;;;;;;;12.70;53.90;;;;;;2072336;28;1042;-61
2021/01/26 05:10:19;;;;;;;;;;;12.70;54.50;;;;;;2086979;28;824;-64
2021/01/26 05:11:39;;;;;;;;;;;12.70;54.00;;;;;;2082121;28;1045;-63
2021/01/26 05:12:59;;;;;;;;;;;12.70;54.10;;;;;;2077055;28;751;-62
2021/01/26 05:14:29;;;;;;;;;;;12.70;54.10;;;;;;2066862;28;753;-62
2021/01/26 05:15:50;;;;;;;;;;;12.60;54.10;;;;;;2088427;28;1374;-61
2021/01/26 05:17:15;;;;;;;;;;;12.60;54.10;;;;;;2078452;28;799;-61
2021/01/26 05:18:42;;;;;;;;;;;12.70;54.20;;;;;;2081988;28;800;-62
2021/01/26 05:20:07;;;;;;;;;;;12.60;54.10;;;;;;2079222;28;1914;-62
2021/01/26 05:21:31;;;;;;;;;;;12.60;54.20;;;;;;2090071;28;877;-61
2021/01/26 05:22:57;;;;;;;;;;;12.60;54.20;;;;;;2099084;28;747;-62
2021/01/26 05:24:25;;;;;;;;;;;12.60;54.30;;;;;;2093207;28;823;-63
2021/01/26 05:25:44;;;;;;;;;;;12.60;54.30;;;;;;2092629;28;1466;-63
2021/01/26 05:27:04;;;;;;;;;;;12.60;54.30;;;;;;2093030;28;731;-62
2021/01/26 05:28:23;;;;;;;;;;;12.60;54.40;;;;;;2093261;28;768;-63
2021/01/26 05:29:42;;;;;;;;;;;12.60;54.40;;;;;;2093997;28;716;-63
2021/01/26 05:31:13;;;;;;;;;;;12.50;54.30;;;;;;2085105;28;776;-62
2021/01/26 05:32:32;;;;;;;;;;;12.50;54.40;;;;;;2097119;28;772;-63
2021/01/26 05:33:51;;;;;;;;;;;12.50;54.40;;;;;;2113715;28;782;-61
2021/01/26 05:35:12;;;;;;;;;;;12.60;54.50;;;;;;2098984;28;790;-62
2021/01/26 05:36:31;;;;;;;;;;;12.50;54.50;;;;;;2096706;28;1478;-60
2021/01/26 05:37:51;;;;;;;;;;;12.50;54.50;;;;;;2093698;28;724;-62
2021/01/26 05:39:12;;;;;;;;;;;12.50;54.50;;;;;;2093592;28;718;-62
2021/01/26 05:40:34;;;;;;;;;;;12.50;54.60;;;;;;2088336;28;1969;-63
2021/01/26 05:41:53;;;;;;;;;;;12.50;55.10;;;;;;2094082;28;749;-62
2021/01/26 05:43:15;;;;;;;;;;;12.50;54.70;;;;;;2093708;28;965;-62
2021/01/26 05:44:34;;;;;;;;;;;12.50;54.70;;;;;;2094722;28;823;-63
2021/01/26 05:45:55;;;;;;;;;;;12.40;54.60;;;;;;2094974;28;1375;-61
2021/01/26 05:47:18;;;;;;;;;;;12.50;54.70;;;;;;2095102;28;850;-61
2021/01/26 05:48:47;;;;;;;;;;;12.40;54.70;;;;;;2098544;28;720;-62
2021/01/26 05:50:21;;;;;;;;;;;12.40;54.70;;;;;;2093558;28;1027;-61
2021/01/26 05:51:40;;;;;;;;;;;12.40;54.80;;;;;;2081365;28;881;-62
2021/01/26 05:53:05;;;;;;;;;;;12.40;54.80;;;;;;2084855;28;748;-62
2021/01/26 05:54:24;;;;;;;;;;;12.40;54.90;;;;;;2091500;28;760;-62
2021/01/26 05:57:26;;;;;;;;;;;12.40;55.00;;;;;;2095119;28;1039;-62
2021/01/26 05:58:46;;;;;;;;;;;12.40;55.00;;;;;;2092678;28;1046;-62
2021/01/26 06:00:15;;;;;;;;;;;12.30;54.90;;;;;;2089843;28;2064;-63
2021/01/26 06:01:34;;;;;;;;;;;12.30;54.90;;;;;;2092881;28;732;-61
2021/01/26 06:03:08;;;;;;;;;;;12.30;55.00;;;;;;2084417;28;1001;-62
2021/01/26 06:04:29;;;;;;;;;;;12.30;55.50;;;;;;2088751;28;953;-61
2021/01/26 06:05:58;;;;;;;;;;;12.30;55.00;;;;;;2081179;28;1507;-64
2021/01/26 06:07:19;;;;;;;;;;;12.30;55.10;;;;;;2087840;28;1136;-63
2021/01/26 06:08:48;;;;;;;;;;;12.30;55.10;;;;;;2106341;28;835;-63
2021/01/26 06:10:17;;;;;;;;;;;12.30;55.10;;;;;;2083940;28;1995;-63
2021/01/26 06:11:36;;;;;;;;;;;12.30;55.10;;;;;;2090138;28;1033;-62
2021/01/26 06:12:56;;;;;;;;;;;12.30;55.20;;;;;;2076254;28;1056;-61
2021/01/26 06:14:16;;;;;;;;;;;12.30;55.20;;;;;;2077358;28;771;-61
2021/01/26 06:15:37;;;;;;;;;;;12.30;55.20;;;;;;2081271;28;784;-62
2021/01/26 06:17:14;;;;;;;;;;;12.30;55.30;;;;;;2085844;28;717;-62
2021/01/26 06:18:34;;;;;;;;;;;12.30;55.30;;;;;;2084522;28;759;-63
2021/01/26 06:20:07;;;;;;;;;;;12.20;55.80;;;;;;2083551;28;1902;-62
2021/01/26 06:21:26;;;;;;;;;;;12.30;55.20;;;;;;2077361;28;870;-63
2021/01/26 06:22:45;;;;;;;;;;;12.20;55.20;;;;;;2090843;28;725;-63
2021/01/26 06:24:13;;;;;;;;;;;12.30;55.20;;;;;;2092718;28;777;-63
2021/01/26 06:25:32;;;;;;;;;;;12.30;55.20;;;;;;2089597;28;763;-62
2021/01/26 06:27:07;;;;;;;;;;;12.30;55.30;;;;;;2084889;28;750;-62
2021/01/26 06:28:41;;;;;;;;;;;12.30;55.20;;;;;;2089838;28;819;-64
2021/01/26 06:30:03;;;;;;;;;;;12.40;55.70;;;;;;2090223;28;755;-63
2021/01/26 06:31:31;;;;;;;;;;;12.40;55.50;;;;;;2093903;28;764;-64
2021/01/26 06:33:02;;;;;;;;;;;12.50;54.90;;;;;;2091783;28;742;-64
2021/01/26 06:34:40;;;;;;;;;;;12.60;55.30;;;;;;2090770;28;1570;-63
2021/01/26 06:36:35;;;;;;;;;;;12.60;54.60;;;;;;2094024;28;1478;-62
2021/01/26 06:37:57;;;;;;;;;;;12.70;54.50;;;;;;2081950;28;797;-64
2021/01/26 06:39:28;;;;;;;;;;;12.70;54.30;;;;;;2083415;28;812;-63
2021/01/26 06:41:07;;;;;;;;;;;12.80;54.20;;;;;;2093422;28;756;-61
2021/01/26 06:42:30;;;;;;;;;;;12.80;54.00;;;;;;2083854;28;744;-61
2021/01/26 06:43:49;;;;;;;;;;;12.90;53.90;;;;;;2088715;28;829;-60
2021/01/26 06:45:13;;;;;;;;;;;12.90;53.80;;;;;;2093918;28;744;-61
2021/01/26 06:46:52;;;;;;;;;;;13.00;53.70;;;;;;2089419;28;1494;-61
2021/01/26 06:48:30;;;;;;;;;;;13.00;53.50;;;;;;2097095;28;1147;-61
2021/01/26 06:49:58;;;;;;;;;;;13.10;53.40;;;;;;2087811;28;952;-61
2021/01/26 06:51:20;;;;;;;;;;;13.10;53.80;;;;;;2090971;28;995;-62
2021/01/26 06:52:39;;;;;;;;;;;13.20;53.20;;;;;;2081859;28;711;-61
2021/01/26 06:54:07;;;;;;;;;;;13.20;53.60;;;;;;2081753;28;709;-63
2021/01/26 06:55:35;;;;;;;;;;;13.30;53.10;;;;;;2080714;28;800;-62
2021/01/26 06:57:07;;;;;;;;;;;13.30;52.90;;;;;;2081194;28;765;-63
2021/01/26 06:58:28;;;;;;;;;;;13.40;52.90;;;;;;2081288;28;741;-63
2021/01/26 06:59:53;;;;;;;;;;;13.40;52.70;;;;;;2081425;28;1967;-63
2021/01/26 07:01:30;;;;;;;;;;;13.50;52.60;;;;;;2080947;28;757;-63
2021/01/26 07:03:07;;;;;;;;;;;13.50;52.50;;;;;;2081165;28;752;-62
2021/01/26 07:04:29;;;;;;;;;;;13.60;52.90;;;;;;2080356;28;744;-64
2021/01/26 07:05:50;;;;;;;;;;;13.60;52.30;;;;;;2080725;28;1321;-62
2021/01/26 07:07:17;;;;;;;;;;;13.70;52.20;;;;;;2084452;28;762;-63
2021/01/26 07:08:49;;;;;;;;;;;13.70;52.00;;;;;;2083218;28;830;-61
2021/01/26 07:10:08;;;;;;;;;;;13.80;52.10;;;;;;2071257;28;815;-62
2021/01/26 07:11:33;;;;;;;;;;;13.80;52.00;;;;;;2077741;28;894;-61
2021/01/26 07:13:11;;;;;;;;;;;13.90;51.90;;;;;;2081599;28;715;-60
2021/01/26 07:14:34;;;;;;;;;;;13.90;51.80;;;;;;2081707;28;692;-62
2021/01/26 07:15:53;;;;;;;;;;;14.00;52.30;;;;;;2081431;28;1329;-62
2021/01/26 07:17:12;;;;;;;;;;;14.10;51.70;;;;;;2081445;28;743;-62
2021/01/26 07:18:34;;;;;;;;;;;14.10;51.50;;;;;;2081094;28;780;-62
2021/01/26 07:19:55;;;;;;;;;;;14.20;51.40;;;;;;2086322;28;1914;-63
2021/01/26 07:21:20;;;;;;;;;;;14.20;51.30;;;;;;2090381;28;1007;-61
2021/01/26 07:22:52;;;;;;;;;;;14.30;51.20;;;;;;2097264;28;708;-62
2021/01/26 07:24:37;;;;;;;;;;;14.30;51.20;;;;;;2095829;28;712;-63
2021/01/26 07:25:56;;;;;;;;;;;14.40;51.10;;;;;;2091849;28;1403;-62
2021/01/26 07:27:20;;;;;;;;;;;14.50;51.10;;;;;;2094222;28;783;-62
2021/01/26 07:28:48;;;;;;;;;;;14.50;50.90;;;;;;2097352;28;737;-62
2021/01/26 07:30:15;;;;;;;;;;;14.60;51.40;;;;;;2097780;28;737;-63
2021/01/26 07:31:39;;;;;;;;;;;14.60;50.70;;;;;;2089110;28;694;-63
2021/01/26 07:33:04;;;;;;;;;;;14.70;50.70;;;;;;2095173;28;736;-62
2021/01/26 07:34:25;;;;;;;;;;;14.80;50.60;;;;;;2098029;28;720;-60
2021/01/26 07:36:02;;;;;;;;;;;14.80;50.50;;;;;;2088851;28;1341;-60
2021/01/26 07:37:22;;;;;;;;;;;14.80;50.40;;;;;;2096208;28;789;-63
2021/01/26 07:38:41;;;;;;;;;;;14.80;50.40;;;;;;2094205;28;725;-61
2021/01/26 07:40:20;;;;;;;;;;;14.80;50.30;;;;;;2097532;28;1973;-62
2021/01/26 07:41:40;;;;;;;;;;;14.80;50.40;;;;;;2097300;28;732;-60
2021/01/26 07:43:02;;;;;;;;;;;14.90;50.40;;;;;;2089048;28;768;-63
2021/01/26 07:44:35;;;;;;;;;;;14.90;50.40;;;;;;2094701;28;727;-63
2021/01/26 07:45:54;;;;;;;;;;;14.90;50.50;;;;;;2088957;28;1320;-62
2021/01/26 07:47:17;;;;;;;;;;;14.90;50.50;;;;;;2094123;28;756;-62
2021/01/26 07:48:39;;;;;;;;;;;14.90;50.50;;;;;;2097382;28;760;-61
2021/01/26 07:50:15;;;;;;;;;;;14.90;50.50;;;;;;2090147;28;1059;-61
2021/01/26 07:51:36;;;;;;;;;;;14.90;50.50;;;;;;2082347;28;949;-64
2021/01/26 07:52:57;;;;;;;;;;;14.90;50.50;;;;;;2089130;28;731;-61
2021/01/26 07:54:35;;;;;;;;;;;14.90;50.50;;;;;;2083102;28;710;-64
2021/01/26 07:56:08;;;;;;;;;;;14.90;50.60;;;;;;2088236;28;1427;-61
2021/01/26 07:57:29;;;;;;;;;;;14.80;50.60;;;;;;2087470;28;736;-61
2021/01/26 07:58:48;;;;;;;;;;;14.80;50.70;;;;;;2099628;28;797;-62
2021/01/26 08:00:07;;;;;;;;;;;14.80;50.80;;;;;;2091951;28;1914;-63
2021/01/26 08:01:28;;;;;;;;;;;14.80;50.90;;;;;;2090734;28;781;-62
2021/01/26 08:02:53;;;;;;;;;;;14.70;50.90;;;;;;2090646;28;1665;-60
2021/01/26 08:04:12;;;;;;;;;;;14.70;51.00;;;;;;2088976;28;759;-60
2021/01/26 08:05:37;;;;;;;;;;;14.70;51.10;;;;;;2093223;28;728;-61
2021/01/26 08:06:57;;;;;;;;;;;14.60;51.20;;;;;;2096908;28;763;-62
2021/01/26 08:08:20;;;;;;;;;;;14.60;51.40;;;;;;2088761;28;804;-61
2021/01/26 08:09:48;;;;;;;;;;;14.60;51.50;;;;;;2091631;28;754;-61
2021/01/26 08:11:12;;;;;;;;;;;14.60;51.50;;;;;;2111834;28;753;-62
2021/01/26 08:12:31;;;;;;;;;;;14.60;51.60;;;;;;2091523;28;735;-62
2021/01/26 08:13:54;;;;;;;;;;;14.60;51.70;;;;;;2094108;28;766;-62
2021/01/26 08:15:18;;;;;;;;;;;14.60;51.70;;;;;;2096459;28;714;-61
2021/01/26 08:16:43;;;;;;;;;;;14.60;52.30;;;;;;2097149;28;1457;-62
2021/01/26 08:18:18;;;;;;;;;;;14.60;51.70;;;;;;2088649;28;720;-62
2021/01/26 08:19:47;;;;;;;;;;;14.60;52.30;;;;;;2082112;28;1047;-63
2021/01/26 08:21:26;;;;;;;;;;;14.60;52.20;;;;;;2078809;28;992;-64